This is the latest recevied weather packets stored in our database for station/object N1LJK-13. If no packets are shown the sender has not sent any weather packets the latest 10 day(s).
| Time | Temp. | Humidity | Pressure | Rain* | Wind** | Luminosity | Snow |
|---|---|---|---|---|---|---|---|
| 1788143151 | 61° F | 98% | 764 mmHg | 0 in | - | - | - |
| 1788141952 | 64° F | 98% | 764.1 mmHg | 0 in | - | - | - |
| 1788140751 | 65° F | 98% | 763.3 mmHg | 0 in | - | - | - |
| 1788139551 | 65° F | 98% | 762.7 mmHg | 0 in | - | - | - |
| 1788138351 | 66° F | 98% | 762.7 mmHg | 0 in | - | - | - |
| 1788137151 | 66° F | 98% | 762.7 mmHg | 0 in | - | - | - |
| 1788135952 | 68° F | 98% | 762.6 mmHg | 0 in | - | - | - |
| 1788134752 | 68° F | 98% | 762.4 mmHg | 0 in | - | - | - |
| 1788132351 | 69° F | 98% | 762.2 mmHg | 0 in | - | - | - |
| 1788131151 | 70° F | 98% | 762.2 mmHg | 0 in | - | - | - |
| 1788129951 | 70° F | 98% | 762.2 mmHg | 0 in | - | - | - |
| 1788128751 | 71° F | 98% | 762.1 mmHg | 0 in | - | - | - |
| 1788126351 | 72° F | 98% | 762.2 mmHg | 0 in | - | - | - |
| 1788123952 | 73° F | 98% | 762.1 mmHg | 0 in | - | - | - |
| 1788121551 | 75° F | 98% | 762.2 mmHg | 0 in | - | - | - |
| 1788120351 | 75° F | 98% | 762.6 mmHg | 0 in | - | - | - |
| 1788117951 | 75° F | 98% | 762.8 mmHg | 0 in | - | - | - |
| 1788116754 | -0° F | 100% | 0 mmHg | 0 in | - | - | - |
| 1788114351 | -0° F | 100% | 0 mmHg | 0 in | - | - | - |
| 1788113151 | -0° F | 100% | 0 mmHg | 0 in | - | - | - |
| 1788111951 | 75° F | 98% | 763.6 mmHg | 0 in | - | - | - |
| 1788109551 | 76° F | 98% | 763.6 mmHg | 0 in | - | - | - |
| 1788108353 | 78° F | 98% | 763.6 mmHg | 0 in | - | - | - |
| 1788107151 | 79° F | 98% | 763.6 mmHg | 0 in | - | - | - |
| 1788102351 | -0° F | 100% | 0 mmHg | 0 in | - | - | - |
* Rain latest hour (hover to see other rain measurements)
** Current wind speed in m/s (hover to see current wind gust speed)